Strona główna
METAR-TAF:

METAR-TAF

Lotnisko :

Port lotniczy Mariehamn

Maarianhamina, Finlandia

Szerokość geograficzna: 60-07N, Długość geograficzna: 019-54E, wysokość: 6 m

Aktualna obserwacja pogody

Raport powstał 53 minut temu, godzina 12:20 UTC
Wiatr 8 kt od północ, zmienny między północno-północny zachód i północny wschód
Temperatura 18°C
Wilgotność 42%
Ciśnienie 1015 hPa
Widzialność 10 km lub więcej
Brak chmur poniżej 1500 m i brak chmur cumulonimbus

METAR: EFMA 211220Z AUTO 36008KT 330V050 CAVOK 18/05 Q1015

czas: 16:13 (13:13 UTC)

Prognoza

Raport powstał 1 godzina i 44 minut temu, godzina 11:29 UTC
Prognoza ważna od 21 godzina 12 UTC do 21 godzina 21 UTC
Wiatr 5 kt od północno-północny zachód
Widzialność 10 km lub więcej
Brak chmur poniżej 1500 m i brak chmur cumulonimbus

TAF: EFMA 211129Z 2112/2121 33005KT CAVOK

Obserwacja i prognoza pogody dla ponad 4000 lotnisk (raport METAR i TAF).

Dostępne stacje oznaczono żółtymi i czerwonymi punktami na mapie.

Najedź kursorem aby zobaczyć nazwę stacji.

Kliknij aby zobaczyć obserwacje i prognozy pogody.

Aby zmienić mapę: kliknij na zielony przycisk z czarnym krzyżykiem, aby powiększyć; na zielony przycisk z myślnikiem, aby pomniejszyć; na zielone strzałki, aby przejść do map sąsiednich.


METAR-TAF: